Řízení letového provozu České republiky  
Aktualizace dat:  17.05.2022 23:18:30 UTC English version
   METEO Zobrazení stránky:  17.05.2022 23:19:36 UTC  
vysvětlivky
METAR EDDB 172250Z 07008KT CAVOK 14/06 Q1023 NOSIG=
METAR EDDC 172250Z 14004KT CAVOK 15/13 Q1023=
METAR EDDE 172250Z AUTO 19006KT CAVOK 16/13 Q1022=
METAR EDDF 172250Z 07003KT CAVOK 17/14 Q1021 NOSIG=
METAR EDDM 172250Z 03002KT CAVOK 11/10 Q1022 NOSIG=
METAR EDDN 172250Z AUTO VRB02KT CAVOK 14/11 Q1022=
METAR EDDP 172250Z 08004KT CAVOK 14/13 Q1022 NOSIG=
METAR EDQM 172250Z AUTO 10002KT 7000 // NCD 10/09 Q1023=
METAR EPBY 172300Z 07007KT CAVOK 06/M02 Q1027=
METAR EPGD 172300Z 29004KT 270V350 CAVOK 02/00 Q1027=
METAR EPKK 172300Z 02008KT CAVOK 10/02 Q1023=
METAR EPKT 172300Z 03005KT CAVOK 08/01 Q1023=
METAR EPLL 172300Z 03011KT CAVOK 08/M01 Q1025=
METAR EPPO 172300Z 08010KT CAVOK 09/M02 Q1026=
METAR EPRZ 172300Z 02006KT CAVOK 09/M01 Q1022=
METAR EPWA 172300Z 01010KT CAVOK 08/M04 Q1025 NOSIG=
METAR EPWR 172300Z 08007KT CAVOK 13/01 Q1024=
METAR LHBP 172300Z 34006KT CAVOK 15/13 Q1019 NOSIG=
METAR LHSM 172245Z AUTO 35010KT 9000 NCD 14/12 Q1020=
METAR LKBC NIL
METAR LKCS 172300Z AUTO 00000KT CAVOK 10/10 Q1023=
METAR LKCV 172300Z 11003KT CAVOK 09/09 Q1023 NOSIG RMK BLU BLU=
METAR LKKB 172300Z 00000KT CAVOK 11/10 Q1023 RMK BLU=
METAR LKKU NIL
SPECI LKKV 172304Z VRB02KT 9999 0700E R29/1200U BCFG NSC 08/07 Q1023=
SPECI LKLN 172314Z AUTO VRB02KT 5000 BR NCD 12/11 Q1023=
METAR LKMT 172300Z 05004KT CAVOK 10/10 Q1022 NOSIG=
METAR LKNA 172300Z 32006KT CAVOK 11/10 Q1023 RMK BLU=
METAR LKPD 172300Z 00000KT CAVOK 09/09 Q1023 RMK BLACK=
METAR LKPJ 172300Z AUTO 32007KT CAVOK 12/09 Q1022=
METAR LKPR 172300Z 08004KT CAVOK 13/11 Q1023 NOSIG RMK REG QNH 1019=
METAR LKTB 172300Z 33006KT CAVOK 12/10 Q1022 NOSIG=
METAR LKVO NIL
METAR LOWI 172250Z AUTO 05002KT 9999 FEW050 BKN080 18/11 Q1022=
METAR LOWL 172250Z AUTO 08006KT 9999 FEW060 SCT070 16/12 Q1022=
METAR LOWS 172250Z AUTO 07006KT 9999 FEW090 14/11 Q1022=
METAR LOWW 172250Z 35006KT CAVOK 12/10 Q1022 NOSIG=
METAR LZIB 172300Z 36007KT CAVOK 14/09 Q1021 NOSIG=
METAR LZKZ 172300Z 01010KT CAVOK 13/04 Q1019 NOSIG=
METAR LZMC NIL
METAR LZPP 172300Z AUTO 34008KT 9999 12/10 Q1021=
METAR LZSL NIL
METAR LZTT 172300Z 03015KT CAVOK 09/02 Q1020=
METAR LZZI 172300Z VRB02KT 0350 R06/0600D FG OVC002 08/08 Q1022=